Opal Express — V7KB8 — position and weather

sailwx.info

Track history (hours):
 
Tides and Currents Weather Stations Pressure Air Temp Water Temp Dewpoint Dewpoint Depression Visibility Wind Speed Wind Dir Waves Ship Positions

Opal Express

Last reported at 2015-Jul-07 06:31 UTC. Time now 2015-Jul-07 06:51 UTC.
Position N 46°09' W 001°14'.

Length 179 m; draft 7.8 m.

Type: Tanker. MMSI: 538002500.

Date/timePositionNaut miles runAvg speedWind from/ knotsBaromVisibWave heightAir tempDewpointWater temp
2015-Jul-07 06:31N 46°09' W 001°14'0 0.0
2015-Jul-07 05:31N 46°09' W 001°14'0 0.0
2015-Jul-07 04:31N 46°09' W 001°14'0 0.0
2015-Jul-07 03:31N 46°09' W 001°14'0 0.0
2015-Jul-07 02:31N 46°09' W 001°14'0 0.0
2015-Jul-07 01:31N 46°09' W 001°14'0 0.0
2015-Jul-07 00:31N 46°09' W 001°14'0 0.0
2015-Jul-06 23:31N 46°09' W 001°14'0 0.0
2015-Jul-06 22:31N 46°09' W 001°14'0 0.0
2015-Jul-06 21:31N 46°09' W 001°14'0 0.0
2015-Jul-06 20:31N 46°09' W 001°14'0 0.0
2015-Jul-06 19:34N 46°09' W 001°14'4 3.6
2015-Jul-06 18:33N 46°06' W 001°16'2 2.3
2015-Jul-06 17:33N 46°04' W 001°17'0 0.0
2015-Jul-06 16:33N 46°04' W 001°17'0 0.0
2015-Jul-06 15:33N 46°04' W 001°17'0 0.0
2015-Jul-06 14:33N 46°04' W 001°17'0 0.0
2015-Jul-06 13:33N 46°04' W 001°17'0 0.2
2015-Jul-06 12:33N 46°04' W 001°17'0 0.1
2015-Jul-06 11:33N 46°04' W 001°17'0 0.0
2015-Jul-06 10:33N 46°04' W 001°17'0 0.0
2015-Jul-06 09:33N 46°04' W 001°17'0 0.0
2015-Jul-06 08:33N 46°04' W 001°17'0 0.1
2015-Jul-06 07:33N 46°04' W 001°17'2 1.6
2015-Jul-06 06:33N 46°05' W 001°19'8 7.6
2015-Jul-06 05:33N 46°07' W 001°30'1212.3
2015-Jul-06 04:33N 46°07' W 001°47'1312.6
2015-Jul-06 03:33N 46°03' W 002°04'1312.8
2015-Jul-06 02:33N 45°59' W 002°22'1313.0
2015-Jul-06 01:33N 45°55' W 002°40'  
2015-Jul-02 08:31N 39°51' W 027°59'1313.1
2015-Jul-02 07:33N 39°47' W 028°15'1313.0
2015-Jul-02 06:33N 39°42' W 028°31'1313.2
2015-Jul-02 05:33N 39°39' W 028°47'1312.9
2015-Jul-02 04:33N 39°35' W 029°03'1313.0
2015-Jul-02 03:33N 39°30' W 029°19'1212.5
2015-Jul-02 02:33N 39°26' W 029°34'1312.5
2015-Jul-02 01:33N 39°22' W 029°50'1313.0
2015-Jul-02 00:33N 39°19' W 030°06'1313.3
2015-Jul-01 23:33N 39°16' W 030°23'1513.2
2015-Jul-01 22:25N 39°13' W 030°42'1213.3
2015-Jul-01 21:33N 39°11' W 030°56'1313.3
2015-Jul-01 20:33N 39°08' W 031°13'1313.3
2015-Jul-01 19:33N 39°05' W 031°30'1313.0
2015-Jul-01 18:33N 39°02' W 031°46'  
Track history (hours):
 
Tides and Currents Weather Stations Pressure Air Temp Water Temp Dewpoint Dewpoint Depression Visibility Wind Speed Wind Dir Waves Ship Positions

Opal Express

Last reported at 2015-Jul-07 06:31 UTC. Time now 2015-Jul-07 06:51 UTC.
Position N 46°09' W 001°14'.

Length 179 m; draft 7.8 m.

Type: Tanker. MMSI: 538002500.

Date/timePositionNaut miles runAvg speedWind from/ knotsBaromVisibWave heightAir tempDewpointWater temp
2015-Jul-07 06:31N 46°09' W 001°14'0 0.0
2015-Jul-07 05:31N 46°09' W 001°14'0 0.0
2015-Jul-07 04:31N 46°09' W 001°14'0 0.0
2015-Jul-07 03:31N 46°09' W 001°14'0 0.0
2015-Jul-07 02:31N 46°09' W 001°14'0 0.0
2015-Jul-07 01:31N 46°09' W 001°14'0 0.0
2015-Jul-07 00:31N 46°09' W 001°14'0 0.0
2015-Jul-06 23:31N 46°09' W 001°14'0 0.0
2015-Jul-06 22:31N 46°09' W 001°14'0 0.0
2015-Jul-06 21:31N 46°09' W 001°14'0 0.0
2015-Jul-06 20:31N 46°09' W 001°14'0 0.0
2015-Jul-06 19:34N 46°09' W 001°14'4 3.6
2015-Jul-06 18:33N 46°06' W 001°16'2 2.3
2015-Jul-06 17:33N 46°04' W 001°17'0 0.0
2015-Jul-06 16:33N 46°04' W 001°17'0 0.0
2015-Jul-06 15:33N 46°04' W 001°17'0 0.0
2015-Jul-06 14:33N 46°04' W 001°17'0 0.0
2015-Jul-06 13:33N 46°04' W 001°17'0 0.2
2015-Jul-06 12:33N 46°04' W 001°17'0 0.1
2015-Jul-06 11:33N 46°04' W 001°17'0 0.0
2015-Jul-06 10:33N 46°04' W 001°17'0 0.0
2015-Jul-06 09:33N 46°04' W 001°17'0 0.0
2015-Jul-06 08:33N 46°04' W 001°17'0 0.1
2015-Jul-06 07:33N 46°04' W 001°17'2 1.6
2015-Jul-06 06:33N 46°05' W 001°19'8 7.6
2015-Jul-06 05:33N 46°07' W 001°30'1212.3
2015-Jul-06 04:33N 46°07' W 001°47'1312.6
2015-Jul-06 03:33N 46°03' W 002°04'1312.8
2015-Jul-06 02:33N 45°59' W 002°22'1313.0
2015-Jul-06 01:33N 45°55' W 002°40'  
2015-Jul-02 08:31N 39°51' W 027°59'1313.1
2015-Jul-02 07:33N 39°47' W 028°15'1313.0
2015-Jul-02 06:33N 39°42' W 028°31'1313.2
2015-Jul-02 05:33N 39°39' W 028°47'1312.9
2015-Jul-02 04:33N 39°35' W 029°03'1313.0
2015-Jul-02 03:33N 39°30' W 029°19'1212.5
2015-Jul-02 02:33N 39°26' W 029°34'1312.5
2015-Jul-02 01:33N 39°22' W 029°50'1313.0
2015-Jul-02 00:33N 39°19' W 030°06'1313.3
2015-Jul-01 23:33N 39°16' W 030°23'1513.2
2015-Jul-01 22:25N 39°13' W 030°42'1213.3
2015-Jul-01 21:33N 39°11' W 030°56'1313.3
2015-Jul-01 20:33N 39°08' W 031°13'1313.3
2015-Jul-01 19:33N 39°05' W 031°30'1313.0
2015-Jul-01 18:33N 39°02' W 031°46'  

Dump ship's entire track history